ADDS METAR Data INFO
IDs: Format: Raw Decoded Include TAF

Data at: 0036 UTC 23 Feb 2018

KINK 222353Z AUTO 15005KT 10SM CLR 08/M01 A3011 RMK AO2 SLP192 T00781006 10078 20011 55003
KINK 222253Z AUTO 10004KT 10SM CLR 08/M01 A3010 RMK AO2 SLP190 T00781006
KINK 222153Z AUTO 06003KT 10SM CLR 07/M01 A3011 RMK AO2 SLP192 T00721006
KINK 222053Z AUTO 07003KT 10SM CLR 06/M01 A3011 RMK AO2 SLP197 T00611011 56021
KINK 221953Z AUTO VRB03KT 10SM SCT017 04/M01 A3014 RMK AO2 SLP210 T00441011
KINK 221924Z AUTO 00000KT 10SM OVC015 04/M01 A3016 RMK AO2 T00441011
KINK 221853Z AUTO VRB03KT 10SM OVC012 03/M01 A3018 RMK AO2 SLP225 T00281011
KINK 221821Z AUTO 00000KT 10SM OVC010 02/M01 A3020 RMK AO2 T00171011
KINK 221753Z AUTO 00000KT 10SM OVC008 02/M01 A3021 RMK AO2 SLP236 I6001 T00171011 10017 21011 50002
KINK 221653Z AUTO 00000KT 10SM OVC006 01/M01 A3022 RMK AO2 CIG 006V010 SLP241 T00061011
KINK 221553Z AUTO 11003KT 9SM OVC006 M01/M02 A3022 RMK AO2 CIG 004V010 SLP240 T10061017
KINK 221453Z AUTO 00000KT 10SM OVC005 M01/M01 A3021 RMK AO2 CIG 004V007 SLP236 I3001 T10061011 53009
KINK 221424Z AUTO 14003KT 3SM BR OVC004 M01/M02 A3020 RMK AO2 T10111017
KINK 221405Z AUTO 00000KT 2 1/2SM BR OVC004 M01/M02 A3020 RMK AO2 CIG 003V007 T10111017
KINK 221353Z AUTO 16003KT 5SM BR OVC005 M01/M02 A3020 RMK AO2 CIG 003V007 SLP232 T10111017
KINK 221253Z AUTO 15004KT 3SM BR OVC005 M01/M02 A3018 RMK AO2 CIG 003V007 SLP223 I1001 T10111017
KINK 221228Z AUTO 14004KT 3SM BR OVC005 M01/M02 A3018 RMK AO2 CIG 003V007 I1001 T10111017
KINK 221153Z AUTO 00000KT 2 1/2SM BR OVC005 M01/M02 A3018 RMK AO2 CIG 003V008 SLP220 T10111017 11006 21011 56003
KINK 221150Z AUTO 00000KT 2 1/2SM BR OVC005 M01/M02 A3018 RMK AO2 CIG 003V008
KINK 221053Z AUTO 04003KT 4SM BR OVC006 M01/M02 A3017 RMK AO2 CIG 004V007 SLP218 T10111022
KINK 220953Z AUTO 07005KT 7SM OVC005 M01/M02 A3019 RMK AO2 SLP222 T10111022
KINK 220853Z AUTO 06006KT 10SM OVC007 M01/M03 A3021 RMK AO2 SLP232 T10111028 58003
KINK 220753Z AUTO 09005KT 10SM OVC008 M01/M03 A3023 RMK AO2 SLP241 T10111028
KINK 220653Z AUTO 07007KT 10SM OVC008 M01/M03 A3023 RMK AO2 SLP240 T10111028
KINK 220628Z AUTO 07009KT 10SM OVC009 M01/M03 A3022 RMK AO2 T10111028
KINK 220553Z AUTO 09007KT 10SM OVC011 M01/M03 A3022 RMK AO2 SLP241 T10061033 10061 21022 400721022 51005
KINK 220534Z AUTO 10005KT 10SM BKN011 M02/M04 A3023 RMK AO2 T10171044
KINK 220453Z AUTO 09005KT 10SM CLR M02/M04 A3022 RMK AO2 SLP243 T10171044
KINK 220353Z AUTO 09006KT 10SM CLR M01/M04 A3022 RMK AO2 SLP241 T10061044
KINK 212353Z AUTO 04006KT 10SM CLR 06/M04 A3020 RMK AO2 SLP228 T00611044 10072 20000 55002
KINK 212253Z AUTO 05005KT 10SM CLR 06/M06 A3019 RMK AO2 SLP223 T00611056
KINK 212153Z AUTO 05006KT 10SM OVC037 06/M06 A3020 RMK AO2 SLP226 T00611061
KINK 212053Z AUTO VRB03KT 10SM OVC038 06/M07 A3021 RMK AO2 SLP227 T00561072 58027
KINK 211953Z AUTO 32005KT 10SM FEW028 OVC039 04/M07 A3026 RMK AO2 SLP245 T00391072
KINK 211944Z AUTO 10SM FEW027 OVC039 03/M07 A3026 RMK AO2 T00331072
KINK 211900Z AUTO 35006KT 10SM BKN027 OVC041 02/M07 A3028 RMK AO2 T00221072
KINK 211853Z AUTO 35008KT 10SM SCT029 OVC042 03/M07 A3028 RMK AO2 SLP252 T00281072
KINK 211835Z AUTO 35008G15KT 10SM SCT025 OVC042 03/M07 A3028 RMK AO2 T00281072
KINK 211753Z AUTO 02007KT 10SM OVC023 01/M07 A3030 RMK AO2 SLP259 T00061072 10006 21022 50000
KINK 211653Z AUTO 02009KT 10SM OVC023 M01/M08 A3031 RMK AO2 SLP263 T10111078
KINK 211553Z AUTO 04012KT 10SM OVC024 M02/M07 A3030 RMK AO2 SLP259 T10171072
KINK 211453Z AUTO 03016G20KT 10SM OVC024 M02/M08 A3030 RMK AO2 SLP254 T10171078 51034 $
KINK 211353Z AUTO 04016G20KT 10SM OVC024 M01/M07 A3027 RMK AO2 SLP244 T10111072 $
KINK 211253Z AUTO 05013G20KT 10SM OVC022 M01/M07 A3024 RMK AO2 PRESRR SLP229 T10111067 $